sensor_id;sensor_type;location;lat;lon;timestamp;P1;durP1;ratioP1;P2;durP2;ratioP2
41311;SDS011;27061;41.648;24.568;2022-09-09T00:02:06;10.45;;;5.78;;
41311;SDS011;27061;41.648;24.568;2022-09-09T00:04:58;12.02;;;5.88;;
41311;SDS011;27061;41.648;24.568;2022-09-09T00:08:02;18.42;;;5.82;;
41311;SDS011;27061;41.648;24.568;2022-09-09T00:13:05;7.47;;;5.85;;
41311;SDS011;27061;41.648;24.568;2022-09-09T00:16:00;7.72;;;5.93;;
41311;SDS011;27061;41.648;24.568;2022-09-09T00:21:16;6.40;;;5.88;;
41311;SDS011;27061;41.648;24.568;2022-09-09T00:23:50;6.90;;;6.20;;
41311;SDS011;27061;41.648;24.568;2022-09-09T00:32:16;10.02;;;6.22;;
41311;SDS011;27061;41.648;24.568;2022-09-09T00:37:25;9.18;;;6.50;;
41311;SDS011;27061;41.648;24.568;2022-09-09T00:39:54;12.43;;;6.90;;
41311;SDS011;27061;41.648;24.568;2022-09-09T00:42:30;13.10;;;6.10;;
41311;SDS011;27061;41.648;24.568;2022-09-09T00:47:56;7.05;;;6.07;;
41311;SDS011;27061;41.648;24.568;2022-09-09T00:58:42;15.30;;;6.50;;
41311;SDS011;27061;41.648;24.568;2022-09-09T01:01:17;18.95;;;6.35;;
41311;SDS011;27061;41.648;24.568;2022-09-09T01:03:47;10.13;;;6.05;;
41311;SDS011;27061;41.648;24.568;2022-09-09T01:14:38;10.23;;;6.57;;
41311;SDS011;27061;41.648;24.568;2022-09-09T01:17:17;9.13;;;6.80;;
41311;SDS011;27061;41.648;24.568;2022-09-09T01:20:08;16.55;;;6.15;;
41311;SDS011;27061;41.648;24.568;2022-09-09T01:28:45;8.68;;;5.97;;
41311;SDS011;27061;41.648;24.568;2022-09-09T01:31:19;16.65;;;6.80;;
41311;SDS011;27061;41.648;24.568;2022-09-09T01:33:49;14.82;;;6.15;;
41311;SDS011;27061;41.648;24.568;2022-09-09T01:36:26;15.63;;;7.00;;
41311;SDS011;27061;41.648;24.568;2022-09-09T01:39:00;15.30;;;6.47;;
41311;SDS011;27061;41.648;24.568;2022-09-09T01:41:29;10.82;;;6.50;;
41311;SDS011;27061;41.648;24.568;2022-09-09T01:44:06;10.20;;;7.07;;
41311;SDS011;27061;41.648;24.568;2022-09-09T01:46:37;9.82;;;6.47;;
41311;SDS011;27061;41.648;24.568;2022-09-09T01:49:12;8.82;;;6.95;;
41311;SDS011;27061;41.648;24.568;2022-09-09T01:51:40;12.27;;;6.75;;
41311;SDS011;27061;41.648;24.568;2022-09-09T01:54:12;10.35;;;6.70;;
41311;SDS011;27061;41.648;24.568;2022-09-09T01:56:43;7.85;;;6.85;;
41311;SDS011;27061;41.648;24.568;2022-09-09T02:04:49;9.00;;;5.85;;
41311;SDS011;27061;41.648;24.568;2022-09-09T02:07:38;13.00;;;6.50;;
41311;SDS011;27061;41.648;24.568;2022-09-09T02:10:42;19.15;;;7.25;;
41311;SDS011;27061;41.648;24.568;2022-09-09T02:13:27;8.07;;;7.25;;
41311;SDS011;27061;41.648;24.568;2022-09-09T02:18:55;12.35;;;6.28;;
41311;SDS011;27061;41.648;24.568;2022-09-09T02:21:39;11.15;;;6.20;;
41311;SDS011;27061;41.648;24.568;2022-09-09T02:24:09;7.10;;;6.15;;
41311;SDS011;27061;41.648;24.568;2022-09-09T02:26:48;8.93;;;6.03;;
41311;SDS011;27061;41.648;24.568;2022-09-09T02:29:24;17.42;;;7.00;;
41311;SDS011;27061;41.648;24.568;2022-09-09T02:31:58;8.18;;;6.70;;
41311;SDS011;27061;41.648;24.568;2022-09-09T02:34:35;9.95;;;6.57;;
41311;SDS011;27061;41.648;24.568;2022-09-09T02:37:07;8.70;;;6.15;;
41311;SDS011;27061;41.648;24.568;2022-09-09T02:39:41;18.90;;;6.40;;
41311;SDS011;27061;41.648;24.568;2022-09-09T02:42:13;8.65;;;5.20;;
41311;SDS011;27061;41.648;24.568;2022-09-09T02:44:42;8.40;;;5.68;;
41311;SDS011;27061;41.648;24.568;2022-09-09T02:47:26;8.43;;;5.50;;
41311;SDS011;27061;41.648;24.568;2022-09-09T02:52:56;8.13;;;6.38;;
41311;SDS011;27061;41.648;24.568;2022-09-09T02:58:11;7.03;;;6.43;;
41311;SDS011;27061;41.648;24.568;2022-09-09T03:00:51;6.97;;;6.28;;
41311;SDS011;27061;41.648;24.568;2022-09-09T03:03:23;7.15;;;6.55;;
41311;SDS011;27061;41.648;24.568;2022-09-09T03:05:51;7.43;;;6.60;;
41311;SDS011;27061;41.648;24.568;2022-09-09T03:08:20;10.90;;;6.65;;
41311;SDS011;27061;41.648;24.568;2022-09-09T03:10:47;9.60;;;6.68;;
41311;SDS011;27061;41.648;24.568;2022-09-09T03:13:16;6.82;;;6.18;;
41311;SDS011;27061;41.648;24.568;2022-09-09T03:15:47;10.77;;;5.82;;
41311;SDS011;27061;41.648;24.568;2022-09-09T03:18:19;8.13;;;6.05;;
41311;SDS011;27061;41.648;24.568;2022-09-09T03:20:50;10.20;;;6.55;;
41311;SDS011;27061;41.648;24.568;2022-09-09T03:23:19;12.50;;;6.55;;
41311;SDS011;27061;41.648;24.568;2022-09-09T03:25:49;13.48;;;6.85;;
41311;SDS011;27061;41.648;24.568;2022-09-09T03:28:26;10.50;;;5.85;;
41311;SDS011;27061;41.648;24.568;2022-09-09T03:31:01;11.15;;;6.13;;
41311;SDS011;27061;41.648;24.568;2022-09-09T03:33:33;11.93;;;5.57;;
41311;SDS011;27061;41.648;24.568;2022-09-09T03:36:05;12.65;;;6.68;;
41311;SDS011;27061;41.648;24.568;2022-09-09T03:38:35;8.45;;;6.10;;
41311;SDS011;27061;41.648;24.568;2022-09-09T03:41:03;14.98;;;6.03;;
41311;SDS011;27061;41.648;24.568;2022-09-09T03:43:34;6.93;;;5.85;;
41311;SDS011;27061;41.648;24.568;2022-09-09T03:46:01;10.77;;;6.20;;
41311;SDS011;27061;41.648;24.568;2022-09-09T03:48:30;16.60;;;6.25;;
41311;SDS011;27061;41.648;24.568;2022-09-09T03:50:58;14.80;;;6.18;;
41311;SDS011;27061;41.648;24.568;2022-09-09T03:53:30;12.65;;;5.43;;
41311;SDS011;27061;41.648;24.568;2022-09-09T03:55:59;9.55;;;6.93;;
41311;SDS011;27061;41.648;24.568;2022-09-09T03:58:29;18.63;;;6.53;;
41311;SDS011;27061;41.648;24.568;2022-09-09T04:01:04;12.82;;;5.15;;
41311;SDS011;27061;41.648;24.568;2022-09-09T04:03:36;17.80;;;4.88;;
41311;SDS011;27061;41.648;24.568;2022-09-09T04:06:05;34.85;;;5.75;;
41311;SDS011;27061;41.648;24.568;2022-09-09T04:08:34;11.20;;;4.70;;
41311;SDS011;27061;41.648;24.568;2022-09-09T04:11:03;14.10;;;4.70;;
41311;SDS011;27061;41.648;24.568;2022-09-09T04:13:38;22.42;;;5.70;;
41311;SDS011;27061;41.648;24.568;2022-09-09T04:16:09;14.15;;;5.72;;
41311;SDS011;27061;41.648;24.568;2022-09-09T04:18:41;15.93;;;5.57;;
41311;SDS011;27061;41.648;24.568;2022-09-09T04:21:13;5.40;;;4.03;;
41311;SDS011;27061;41.648;24.568;2022-09-09T04:23:43;11.40;;;4.28;;
41311;SDS011;27061;41.648;24.568;2022-09-09T04:26:11;12.52;;;4.10;;
41311;SDS011;27061;41.648;24.568;2022-09-09T04:28:40;12.00;;;4.10;;
41311;SDS011;27061;41.648;24.568;2022-09-09T04:31:17;28.40;;;4.82;;
41311;SDS011;27061;41.648;24.568;2022-09-09T04:33:55;21.17;;;5.00;;
41311;SDS011;27061;41.648;24.568;2022-09-09T04:36:25;8.18;;;4.15;;
41311;SDS011;27061;41.648;24.568;2022-09-09T04:38:58;7.72;;;3.90;;
41311;SDS011;27061;41.648;24.568;2022-09-09T04:41:25;14.38;;;4.63;;
41311;SDS011;27061;41.648;24.568;2022-09-09T04:43:56;24.83;;;4.22;;
41311;SDS011;27061;41.648;24.568;2022-09-09T04:46:24;34.10;;;5.65;;
41311;SDS011;27061;41.648;24.568;2022-09-09T04:48:53;8.55;;;4.22;;
41311;SDS011;27061;41.648;24.568;2022-09-09T04:51:22;6.82;;;4.38;;
41311;SDS011;27061;41.648;24.568;2022-09-09T04:53:52;10.27;;;4.80;;
41311;SDS011;27061;41.648;24.568;2022-09-09T04:56:22;8.38;;;3.72;;
41311;SDS011;27061;41.648;24.568;2022-09-09T04:58:53;18.17;;;4.75;;
41311;SDS011;27061;41.648;24.568;2022-09-09T05:01:31;11.55;;;4.20;;
41311;SDS011;27061;41.648;24.568;2022-09-09T05:04:02;17.80;;;4.47;;
41311;SDS011;27061;41.648;24.568;2022-09-09T05:06:33;19.25;;;5.07;;
41311;SDS011;27061;41.648;24.568;2022-09-09T05:09:04;31.42;;;5.88;;
41311;SDS011;27061;41.648;24.568;2022-09-09T05:11:33;12.93;;;4.85;;
41311;SDS011;27061;41.648;24.568;2022-09-09T05:14:31;19.90;;;5.07;;
41311;SDS011;27061;41.648;24.568;2022-09-09T05:17:00;21.65;;;5.68;;
41311;SDS011;27061;41.648;24.568;2022-09-09T05:19:28;16.38;;;4.97;;
41311;SDS011;27061;41.648;24.568;2022-09-09T05:21:57;20.98;;;5.35;;
41311;SDS011;27061;41.648;24.568;2022-09-09T05:24:34;20.38;;;4.47;;
41311;SDS011;27061;41.648;24.568;2022-09-09T05:27:02;17.02;;;4.20;;
41311;SDS011;27061;41.648;24.568;2022-09-09T05:29:33;18.27;;;5.43;;
41311;SDS011;27061;41.648;24.568;2022-09-09T05:32:04;23.38;;;4.95;;
41311;SDS011;27061;41.648;24.568;2022-09-09T05:34:35;11.30;;;4.63;;
41311;SDS011;27061;41.648;24.568;2022-09-09T05:37:07;12.15;;;5.10;;
41311;SDS011;27061;41.648;24.568;2022-09-09T05:39:37;9.10;;;4.32;;
41311;SDS011;27061;41.648;24.568;2022-09-09T05:42:05;15.18;;;4.72;;
41311;SDS011;27061;41.648;24.568;2022-09-09T05:44:34;14.02;;;5.13;;
41311;SDS011;27061;41.648;24.568;2022-09-09T05:47:03;7.53;;;3.97;;
41311;SDS011;27061;41.648;24.568;2022-09-09T05:49:31;25.05;;;4.40;;
41311;SDS011;27061;41.648;24.568;2022-09-09T05:51:58;10.40;;;4.28;;
41311;SDS011;27061;41.648;24.568;2022-09-09T05:54:27;8.07;;;4.40;;
41311;SDS011;27061;41.648;24.568;2022-09-09T05:56:54;12.63;;;4.47;;
41311;SDS011;27061;41.648;24.568;2022-09-09T05:59:23;12.52;;;4.65;;
41311;SDS011;27061;41.648;24.568;2022-09-09T06:01:53;12.57;;;4.70;;
41311;SDS011;27061;41.648;24.568;2022-09-09T06:04:35;22.35;;;4.63;;
41311;SDS011;27061;41.648;24.568;2022-09-09T06:07:03;14.05;;;4.50;;
41311;SDS011;27061;41.648;24.568;2022-09-09T06:09:34;13.32;;;4.30;;
41311;SDS011;27061;41.648;24.568;2022-09-09T06:12:03;10.40;;;4.22;;
41311;SDS011;27061;41.648;24.568;2022-09-09T06:14:34;14.18;;;4.90;;
41311;SDS011;27061;41.648;24.568;2022-09-09T06:17:05;11.15;;;4.63;;
41311;SDS011;27061;41.648;24.568;2022-09-09T06:19:33;12.57;;;4.40;;
41311;SDS011;27061;41.648;24.568;2022-09-09T06:22:01;13.73;;;5.15;;
41311;SDS011;27061;41.648;24.568;2022-09-09T06:24:33;10.43;;;4.78;;
41311;SDS011;27061;41.648;24.568;2022-09-09T06:27:01;14.73;;;4.72;;
41311;SDS011;27061;41.648;24.568;2022-09-09T06:29:33;12.68;;;4.47;;
41311;SDS011;27061;41.648;24.568;2022-09-09T06:32:02;14.35;;;5.60;;
41311;SDS011;27061;41.648;24.568;2022-09-09T06:34:33;8.45;;;4.65;;
41311;SDS011;27061;41.648;24.568;2022-09-09T06:37:05;16.35;;;4.93;;
41311;SDS011;27061;41.648;24.568;2022-09-09T06:39:40;17.63;;;5.13;;
41311;SDS011;27061;41.648;24.568;2022-09-09T06:42:08;9.05;;;5.35;;
41311;SDS011;27061;41.648;24.568;2022-09-09T06:44:47;6.95;;;4.65;;
41311;SDS011;27061;41.648;24.568;2022-09-09T06:47:22;16.50;;;4.90;;
41311;SDS011;27061;41.648;24.568;2022-09-09T06:49:53;12.57;;;5.15;;
41311;SDS011;27061;41.648;24.568;2022-09-09T06:52:23;11.70;;;5.50;;
41311;SDS011;27061;41.648;24.568;2022-09-09T06:54:55;10.90;;;5.13;;
41311;SDS011;27061;41.648;24.568;2022-09-09T06:57:28;10.27;;;4.90;;
41311;SDS011;27061;41.648;24.568;2022-09-09T07:00:10;12.45;;;4.97;;
41311;SDS011;27061;41.648;24.568;2022-09-09T07:02:40;16.58;;;4.80;;
41311;SDS011;27061;41.648;24.568;2022-09-09T07:05:11;10.18;;;4.60;;
41311;SDS011;27061;41.648;24.568;2022-09-09T07:07:41;6.82;;;4.00;;
41311;SDS011;27061;41.648;24.568;2022-09-09T07:10:11;15.50;;;4.55;;
41311;SDS011;27061;41.648;24.568;2022-09-09T07:12:39;17.85;;;4.28;;
41311;SDS011;27061;41.648;24.568;2022-09-09T07:15:11;11.63;;;4.65;;
41311;SDS011;27061;41.648;24.568;2022-09-09T07:17:43;14.00;;;4.10;;
41311;SDS011;27061;41.648;24.568;2022-09-09T07:20:11;9.88;;;4.18;;
41311;SDS011;27061;41.648;24.568;2022-09-09T07:22:39;15.65;;;3.95;;
41311;SDS011;27061;41.648;24.568;2022-09-09T07:25:10;14.77;;;3.53;;
41311;SDS011;27061;41.648;24.568;2022-09-09T07:27:41;13.90;;;3.38;;
41311;SDS011;27061;41.648;24.568;2022-09-09T07:30:09;6.10;;;3.88;;
41311;SDS011;27061;41.648;24.568;2022-09-09T07:32:44;9.13;;;3.85;;
41311;SDS011;27061;41.648;24.568;2022-09-09T07:35:11;11.32;;;4.13;;
41311;SDS011;27061;41.648;24.568;2022-09-09T07:37:41;7.70;;;4.03;;
41311;SDS011;27061;41.648;24.568;2022-09-09T07:40:11;12.23;;;4.00;;
41311;SDS011;27061;41.648;24.568;2022-09-09T07:42:39;11.25;;;4.10;;
41311;SDS011;27061;41.648;24.568;2022-09-09T07:45:07;8.73;;;3.55;;
41311;SDS011;27061;41.648;24.568;2022-09-09T07:47:35;14.40;;;3.83;;
41311;SDS011;27061;41.648;24.568;2022-09-09T07:50:03;9.25;;;3.65;;
41311;SDS011;27061;41.648;24.568;2022-09-09T07:52:37;25.95;;;4.15;;
41311;SDS011;27061;41.648;24.568;2022-09-09T07:55:07;22.30;;;3.95;;
41311;SDS011;27061;41.648;24.568;2022-09-09T07:57:36;11.63;;;3.78;;
41311;SDS011;27061;41.648;24.568;2022-09-09T08:00:05;5.75;;;3.25;;
41311;SDS011;27061;41.648;24.568;2022-09-09T08:02:41;13.68;;;3.17;;
41311;SDS011;27061;41.648;24.568;2022-09-09T08:05:09;16.52;;;3.22;;
41311;SDS011;27061;41.648;24.568;2022-09-09T08:07:39;10.27;;;3.53;;
41311;SDS011;27061;41.648;24.568;2022-09-09T08:10:07;8.85;;;3.75;;
41311;SDS011;27061;41.648;24.568;2022-09-09T08:12:35;12.02;;;3.28;;
41311;SDS011;27061;41.648;24.568;2022-09-09T08:15:04;8.35;;;3.10;;
41311;SDS011;27061;41.648;24.568;2022-09-09T08:17:33;20.05;;;3.85;;
41311;SDS011;27061;41.648;24.568;2022-09-09T08:20:05;9.48;;;3.60;;
41311;SDS011;27061;41.648;24.568;2022-09-09T08:22:34;10.82;;;3.13;;
41311;SDS011;27061;41.648;24.568;2022-09-09T08:25:02;16.00;;;2.95;;
41311;SDS011;27061;41.648;24.568;2022-09-09T08:27:35;5.43;;;3.20;;
41311;SDS011;27061;41.648;24.568;2022-09-09T08:30:02;12.98;;;3.55;;
41311;SDS011;27061;41.648;24.568;2022-09-09T08:32:31;8.60;;;3.60;;
41311;SDS011;27061;41.648;24.568;2022-09-09T08:34:58;10.88;;;3.55;;
41311;SDS011;27061;41.648;24.568;2022-09-09T08:37:29;18.58;;;3.95;;
41311;SDS011;27061;41.648;24.568;2022-09-09T08:39:56;17.33;;;3.20;;
41311;SDS011;27061;41.648;24.568;2022-09-09T08:42:38;5.45;;;2.90;;
41311;SDS011;27061;41.648;24.568;2022-09-09T08:45:25;6.72;;;3.17;;
41311;SDS011;27061;41.648;24.568;2022-09-09T08:50:36;7.25;;;2.70;;
41311;SDS011;27061;41.648;24.568;2022-09-09T08:53:23;10.43;;;3.47;;
41311;SDS011;27061;41.648;24.568;2022-09-09T08:55:58;9.68;;;2.63;;
41311;SDS011;27061;41.648;24.568;2022-09-09T08:58:49;5.97;;;2.60;;
41311;SDS011;27061;41.648;24.568;2022-09-09T09:07:24;15.43;;;2.90;;
41311;SDS011;27061;41.648;24.568;2022-09-09T09:13:18;14.00;;;2.60;;
41311;SDS011;27061;41.648;24.568;2022-09-09T09:15:53;15.85;;;3.13;;
41311;SDS011;27061;41.648;24.568;2022-09-09T09:18:25;12.07;;;3.00;;
41311;SDS011;27061;41.648;24.568;2022-09-09T09:21:16;12.85;;;3.15;;
41311;SDS011;27061;41.648;24.568;2022-09-09T09:26:30;15.13;;;2.92;;
41311;SDS011;27061;41.648;24.568;2022-09-09T09:29:11;9.32;;;3.00;;
41311;SDS011;27061;41.648;24.568;2022-09-09T09:31:44;10.80;;;2.80;;
41311;SDS011;27061;41.648;24.568;2022-09-09T09:34:15;7.28;;;2.60;;
41311;SDS011;27061;41.648;24.568;2022-09-09T09:36:58;8.63;;;2.78;;
41311;SDS011;27061;41.648;24.568;2022-09-09T09:39:34;9.65;;;2.55;;
41311;SDS011;27061;41.648;24.568;2022-09-09T09:42:25;16.38;;;3.75;;
41311;SDS011;27061;41.648;24.568;2022-09-09T09:44:55;5.60;;;2.88;;
41311;SDS011;27061;41.648;24.568;2022-09-09T09:47:23;7.88;;;2.63;;
41311;SDS011;27061;41.648;24.568;2022-09-09T09:50:00;6.00;;;2.95;;
41311;SDS011;27061;41.648;24.568;2022-09-09T09:52:35;10.80;;;2.83;;
41311;SDS011;27061;41.648;24.568;2022-09-09T09:55:11;17.27;;;2.75;;
41311;SDS011;27061;41.648;24.568;2022-09-09T09:57:44;11.48;;;3.10;;
41311;SDS011;27061;41.648;24.568;2022-09-09T10:00:14;4.53;;;2.95;;
41311;SDS011;27061;41.648;24.568;2022-09-09T10:02:59;8.60;;;2.83;;
41311;SDS011;27061;41.648;24.568;2022-09-09T10:05:32;4.80;;;3.00;;
41311;SDS011;27061;41.648;24.568;2022-09-09T10:08:12;10.85;;;2.58;;
41311;SDS011;27061;41.648;24.568;2022-09-09T10:41:15;13.55;;;3.00;;
41311;SDS011;27061;41.648;24.568;2022-09-09T10:46:54;7.38;;;3.00;;
41311;SDS011;27061;41.648;24.568;2022-09-09T10:52:13;12.00;;;3.72;;
41311;SDS011;27061;41.648;24.568;2022-09-09T11:00:18;12.80;;;3.25;;
41311;SDS011;27061;41.648;24.568;2022-09-09T11:03:27;9.63;;;3.17;;
41311;SDS011;27061;41.648;24.568;2022-09-09T11:06:06;11.82;;;3.03;;
41311;SDS011;27061;41.648;24.568;2022-09-09T11:08:41;10.35;;;2.85;;
41311;SDS011;27061;41.648;24.568;2022-09-09T11:11:25;12.25;;;2.75;;
41311;SDS011;27061;41.648;24.568;2022-09-09T11:16:38;14.68;;;3.03;;
41311;SDS011;27061;41.648;24.568;2022-09-09T11:21:51;6.32;;;2.47;;
41311;SDS011;27061;41.648;24.568;2022-09-09T11:24:27;11.75;;;2.83;;
41311;SDS011;27061;41.648;24.568;2022-09-09T11:27:02;14.40;;;3.08;;
41311;SDS011;27061;41.648;24.568;2022-09-09T11:29:43;11.82;;;2.78;;
41311;SDS011;27061;41.648;24.568;2022-09-09T11:40:43;13.23;;;2.95;;
41311;SDS011;27061;41.648;24.568;2022-09-09T11:43:13;5.28;;;3.13;;
41311;SDS011;27061;41.648;24.568;2022-09-09T11:45:53;17.67;;;4.22;;
41311;SDS011;27061;41.648;24.568;2022-09-09T11:48:29;9.80;;;3.55;;
41311;SDS011;27061;41.648;24.568;2022-09-09T11:51:07;14.35;;;3.63;;
41311;SDS011;27061;41.648;24.568;2022-09-09T11:59:06;10.60;;;4.25;;
41311;SDS011;27061;41.648;24.568;2022-09-09T12:01:49;8.80;;;3.22;;
41311;SDS011;27061;41.648;24.568;2022-09-09T12:19:46;14.20;;;3.50;;
41311;SDS011;27061;41.648;24.568;2022-09-09T12:22:22;6.18;;;3.33;;
41311;SDS011;27061;41.648;24.568;2022-09-09T12:25:09;9.77;;;3.20;;
41311;SDS011;27061;41.648;24.568;2022-09-09T12:28:02;16.17;;;3.85;;
41311;SDS011;27061;41.648;24.568;2022-09-09T12:33:21;12.98;;;3.78;;
41311;SDS011;27061;41.648;24.568;2022-09-09T12:35:53;12.52;;;3.22;;
41311;SDS011;27061;41.648;24.568;2022-09-09T12:41:01;10.27;;;2.80;;
41311;SDS011;27061;41.648;24.568;2022-09-09T12:43:30;15.45;;;2.92;;
41311;SDS011;27061;41.648;24.568;2022-09-09T12:45:59;15.18;;;4.65;;
41311;SDS011;27061;41.648;24.568;2022-09-09T12:48:39;9.45;;;2.65;;
41311;SDS011;27061;41.648;24.568;2022-09-09T12:51:19;12.00;;;3.50;;
41311;SDS011;27061;41.648;24.568;2022-09-09T12:53:53;20.40;;;3.07;;
41311;SDS011;27061;41.648;24.568;2022-09-09T12:56:23;29.65;;;4.40;;
41311;SDS011;27061;41.648;24.568;2022-09-09T12:58:54;11.85;;;3.42;;
41311;SDS011;27061;41.648;24.568;2022-09-09T13:01:32;17.80;;;3.78;;
41311;SDS011;27061;41.648;24.568;2022-09-09T13:04:01;24.92;;;3.83;;
41311;SDS011;27061;41.648;24.568;2022-09-09T13:06:30;18.13;;;3.42;;
41311;SDS011;27061;41.648;24.568;2022-09-09T13:08:59;11.68;;;4.28;;
41311;SDS011;27061;41.648;24.568;2022-09-09T13:14:00;11.07;;;3.70;;
41311;SDS011;27061;41.648;24.568;2022-09-09T13:16:29;12.10;;;3.58;;
41311;SDS011;27061;41.648;24.568;2022-09-09T13:19:08;16.67;;;3.35;;
41311;SDS011;27061;41.648;24.568;2022-09-09T13:21:40;15.82;;;3.83;;
41311;SDS011;27061;41.648;24.568;2022-09-09T13:24:30;13.88;;;4.07;;
41311;SDS011;27061;41.648;24.568;2022-09-09T13:29:31;14.18;;;3.63;;
41311;SDS011;27061;41.648;24.568;2022-09-09T13:32:03;17.40;;;4.18;;
41311;SDS011;27061;41.648;24.568;2022-09-09T13:34:58;16.55;;;3.83;;
41311;SDS011;27061;41.648;24.568;2022-09-09T13:37:33;14.48;;;3.75;;
41311;SDS011;27061;41.648;24.568;2022-09-09T13:40:04;17.58;;;3.65;;
41311;SDS011;27061;41.648;24.568;2022-09-09T13:42:36;9.63;;;3.28;;
41311;SDS011;27061;41.648;24.568;2022-09-09T13:45:18;13.93;;;3.72;;
41311;SDS011;27061;41.648;24.568;2022-09-09T13:47:48;13.25;;;3.35;;
41311;SDS011;27061;41.648;24.568;2022-09-09T13:50:23;18.50;;;4.05;;
41311;SDS011;27061;41.648;24.568;2022-09-09T13:52:53;15.68;;;3.80;;
41311;SDS011;27061;41.648;24.568;2022-09-09T13:55:29;10.85;;;3.70;;
41311;SDS011;27061;41.648;24.568;2022-09-09T13:58:00;12.77;;;3.05;;
41311;SDS011;27061;41.648;24.568;2022-09-09T14:00:30;18.77;;;3.83;;
41311;SDS011;27061;41.648;24.568;2022-09-09T14:03:00;26.83;;;3.88;;
41311;SDS011;27061;41.648;24.568;2022-09-09T14:05:31;20.50;;;4.03;;
41311;SDS011;27061;41.648;24.568;2022-09-09T14:08:00;16.63;;;4.20;;
41311;SDS011;27061;41.648;24.568;2022-09-09T14:10:31;16.10;;;3.47;;
41311;SDS011;27061;41.648;24.568;2022-09-09T14:12:58;23.27;;;6.45;;
41311;SDS011;27061;41.648;24.568;2022-09-09T14:15:25;12.30;;;4.25;;
41311;SDS011;27061;41.648;24.568;2022-09-09T14:17:54;24.33;;;4.40;;
41311;SDS011;27061;41.648;24.568;2022-09-09T14:20:21;17.02;;;3.88;;
41311;SDS011;27061;41.648;24.568;2022-09-09T14:22:49;19.95;;;3.72;;
41311;SDS011;27061;41.648;24.568;2022-09-09T14:25:16;13.38;;;3.42;;
41311;SDS011;27061;41.648;24.568;2022-09-09T14:27:44;12.77;;;3.67;;
41311;SDS011;27061;41.648;24.568;2022-09-09T14:30:12;16.77;;;3.38;;
41311;SDS011;27061;41.648;24.568;2022-09-09T14:32:40;33.63;;;4.28;;
41311;SDS011;27061;41.648;24.568;2022-09-09T14:35:08;13.27;;;3.17;;
41311;SDS011;27061;41.648;24.568;2022-09-09T14:37:36;22.48;;;4.40;;
41311;SDS011;27061;41.648;24.568;2022-09-09T14:40:05;17.77;;;4.10;;
41311;SDS011;27061;41.648;24.568;2022-09-09T14:42:35;13.32;;;3.75;;
41311;SDS011;27061;41.648;24.568;2022-09-09T14:45:03;8.77;;;3.30;;
41311;SDS011;27061;41.648;24.568;2022-09-09T14:47:32;10.25;;;3.65;;
41311;SDS011;27061;41.648;24.568;2022-09-09T14:49:59;14.30;;;4.30;;
41311;SDS011;27061;41.648;24.568;2022-09-09T14:52:31;5.95;;;3.40;;
41311;SDS011;27061;41.648;24.568;2022-09-09T14:54:58;11.82;;;3.95;;
41311;SDS011;27061;41.648;24.568;2022-09-09T14:57:26;15.20;;;3.30;;
41311;SDS011;27061;41.648;24.568;2022-09-09T14:59:53;9.98;;;3.70;;
41311;SDS011;27061;41.648;24.568;2022-09-09T15:02:22;11.77;;;3.45;;
41311;SDS011;27061;41.648;24.568;2022-09-09T15:04:49;18.23;;;4.28;;
41311;SDS011;27061;41.648;24.568;2022-09-09T15:07:17;13.13;;;3.50;;
41311;SDS011;27061;41.648;24.568;2022-09-09T15:09:45;12.50;;;4.00;;
41311;SDS011;27061;41.648;24.568;2022-09-09T15:12:15;19.50;;;3.92;;
41311;SDS011;27061;41.648;24.568;2022-09-09T15:14:45;10.07;;;3.67;;
41311;SDS011;27061;41.648;24.568;2022-09-09T15:17:13;19.30;;;3.83;;
41311;SDS011;27061;41.648;24.568;2022-09-09T15:19:41;16.25;;;3.50;;
41311;SDS011;27061;41.648;24.568;2022-09-09T15:22:09;12.98;;;4.03;;
41311;SDS011;27061;41.648;24.568;2022-09-09T15:24:36;14.73;;;4.13;;
41311;SDS011;27061;41.648;24.568;2022-09-09T15:27:04;15.65;;;4.22;;
41311;SDS011;27061;41.648;24.568;2022-09-09T15:29:32;11.80;;;4.00;;
41311;SDS011;27061;41.648;24.568;2022-09-09T15:32:00;10.30;;;3.92;;
41311;SDS011;27061;41.648;24.568;2022-09-09T15:34:27;11.95;;;4.45;;
41311;SDS011;27061;41.648;24.568;2022-09-09T15:36:56;16.75;;;4.30;;
41311;SDS011;27061;41.648;24.568;2022-09-09T15:39:23;15.23;;;4.18;;
41311;SDS011;27061;41.648;24.568;2022-09-09T15:41:51;9.52;;;3.83;;
41311;SDS011;27061;41.648;24.568;2022-09-09T15:44:19;18.83;;;4.00;;
41311;SDS011;27061;41.648;24.568;2022-09-09T15:46:51;9.40;;;4.13;;
41311;SDS011;27061;41.648;24.568;2022-09-09T15:49:23;14.05;;;4.13;;
41311;SDS011;27061;41.648;24.568;2022-09-09T15:51:54;14.55;;;5.05;;
41311;SDS011;27061;41.648;24.568;2022-09-09T15:54:25;8.77;;;4.22;;
41311;SDS011;27061;41.648;24.568;2022-09-09T15:56:55;10.77;;;4.32;;
41311;SDS011;27061;41.648;24.568;2022-09-09T15:59:26;17.77;;;9.20;;
41311;SDS011;27061;41.648;24.568;2022-09-09T16:01:57;15.63;;;4.38;;
41311;SDS011;27061;41.648;24.568;2022-09-09T16:04:27;10.77;;;4.32;;
41311;SDS011;27061;41.648;24.568;2022-09-09T16:06:58;12.95;;;5.00;;
41311;SDS011;27061;41.648;24.568;2022-09-09T16:09:27;14.80;;;5.63;;
41311;SDS011;27061;41.648;24.568;2022-09-09T16:12:01;9.35;;;4.78;;
41311;SDS011;27061;41.648;24.568;2022-09-09T16:14:34;15.45;;;6.03;;
41311;SDS011;27061;41.648;24.568;2022-09-09T16:17:03;9.73;;;5.03;;
41311;SDS011;27061;41.648;24.568;2022-09-09T16:19:31;11.20;;;5.15;;
41311;SDS011;27061;41.648;24.568;2022-09-09T16:21:58;16.13;;;4.95;;
41311;SDS011;27061;41.648;24.568;2022-09-09T16:24:27;7.90;;;4.63;;
41311;SDS011;27061;41.648;24.568;2022-09-09T16:26:55;9.38;;;4.75;;
41311;SDS011;27061;41.648;24.568;2022-09-09T16:29:23;12.13;;;4.65;;
41311;SDS011;27061;41.648;24.568;2022-09-09T16:31:54;24.85;;;5.28;;
41311;SDS011;27061;41.648;24.568;2022-09-09T16:34:29;7.85;;;5.07;;
41311;SDS011;27061;41.648;24.568;2022-09-09T16:36:56;10.90;;;4.13;;
41311;SDS011;27061;41.648;24.568;2022-09-09T16:39:24;13.02;;;5.03;;
41311;SDS011;27061;41.648;24.568;2022-09-09T16:41:51;9.93;;;5.90;;
41311;SDS011;27061;41.648;24.568;2022-09-09T16:44:20;12.05;;;4.95;;
41311;SDS011;27061;41.648;24.568;2022-09-09T16:46:48;19.67;;;5.05;;
41311;SDS011;27061;41.648;24.568;2022-09-09T16:49:27;14.77;;;5.10;;
41311;SDS011;27061;41.648;24.568;2022-09-09T16:51:56;14.30;;;4.80;;
41311;SDS011;27061;41.648;24.568;2022-09-09T16:54:25;27.80;;;5.70;;
41311;SDS011;27061;41.648;24.568;2022-09-09T16:56:54;23.10;;;6.13;;
41311;SDS011;27061;41.648;24.568;2022-09-09T16:59:22;13.70;;;5.30;;
41311;SDS011;27061;41.648;24.568;2022-09-09T17:01:50;21.02;;;5.20;;
41311;SDS011;27061;41.648;24.568;2022-09-09T17:04:20;16.63;;;5.00;;
41311;SDS011;27061;41.648;24.568;2022-09-09T17:06:53;12.98;;;4.45;;
41311;SDS011;27061;41.648;24.568;2022-09-09T17:09:22;14.35;;;5.05;;
41311;SDS011;27061;41.648;24.568;2022-09-09T17:11:50;13.95;;;4.63;;
41311;SDS011;27061;41.648;24.568;2022-09-09T17:14:19;46.25;;;5.63;;
41311;SDS011;27061;41.648;24.568;2022-09-09T17:16:49;12.05;;;4.97;;
41311;SDS011;27061;41.648;24.568;2022-09-09T17:19:17;26.33;;;5.30;;
41311;SDS011;27061;41.648;24.568;2022-09-09T17:21:45;14.70;;;4.72;;
41311;SDS011;27061;41.648;24.568;2022-09-09T17:24:34;18.77;;;5.03;;
41311;SDS011;27061;41.648;24.568;2022-09-09T17:27:05;14.82;;;5.50;;
41311;SDS011;27061;41.648;24.568;2022-09-09T17:29:33;14.68;;;7.53;;
41311;SDS011;27061;41.648;24.568;2022-09-09T17:32:02;23.25;;;7.82;;